sensor_id;sensor_type;location;lat;lon;timestamp;P1;durP1;ratioP1;P2;durP2;ratioP2
31808;SDS011;18379;48.208;-1.518;2022-07-25T00:04:56;45.10;;;42.37;;
31808;SDS011;18379;48.208;-1.518;2022-07-25T00:09:57;45.80;;;42.97;;
31808;SDS011;18379;48.208;-1.518;2022-07-25T00:14:58;46.43;;;43.67;;
31808;SDS011;18379;48.208;-1.518;2022-07-25T00:19:59;47.03;;;43.97;;
31808;SDS011;18379;48.208;-1.518;2022-07-25T00:25:00;48.73;;;45.47;;
31808;SDS011;18379;48.208;-1.518;2022-07-25T00:30:03;47.03;;;44.03;;
31808;SDS011;18379;48.208;-1.518;2022-07-25T00:35:04;47.07;;;44.07;;
31808;SDS011;18379;48.208;-1.518;2022-07-25T00:40:05;46.97;;;44.07;;
31808;SDS011;18379;48.208;-1.518;2022-07-25T00:45:06;47.17;;;44.27;;
31808;SDS011;18379;48.208;-1.518;2022-07-25T00:50:08;46.17;;;43.33;;
31808;SDS011;18379;48.208;-1.518;2022-07-25T00:55:09;47.30;;;44.27;;
31808;SDS011;18379;48.208;-1.518;2022-07-25T01:00:11;47.33;;;44.40;;
31808;SDS011;18379;48.208;-1.518;2022-07-25T01:05:14;46.00;;;43.30;;
31808;SDS011;18379;48.208;-1.518;2022-07-25T01:10:15;44.60;;;41.90;;
31808;SDS011;18379;48.208;-1.518;2022-07-25T01:15:19;44.73;;;41.97;;
31808;SDS011;18379;48.208;-1.518;2022-07-25T01:20:22;43.70;;;41.10;;
31808;SDS011;18379;48.208;-1.518;2022-07-25T01:25:25;44.33;;;41.63;;
31808;SDS011;18379;48.208;-1.518;2022-07-25T01:30:26;43.90;;;41.37;;
31808;SDS011;18379;48.208;-1.518;2022-07-25T01:35:27;45.17;;;42.43;;
31808;SDS011;18379;48.208;-1.518;2022-07-25T01:40:28;45.33;;;42.73;;
31808;SDS011;18379;48.208;-1.518;2022-07-25T01:45:29;46.23;;;43.47;;
31808;SDS011;18379;48.208;-1.518;2022-07-25T01:50:30;46.67;;;43.80;;
31808;SDS011;18379;48.208;-1.518;2022-07-25T01:55:31;46.53;;;43.77;;
31808;SDS011;18379;48.208;-1.518;2022-07-25T02:00:31;45.93;;;43.13;;
31808;SDS011;18379;48.208;-1.518;2022-07-25T02:05:32;46.17;;;43.27;;
31808;SDS011;18379;48.208;-1.518;2022-07-25T02:10:33;46.47;;;43.60;;
31808;SDS011;18379;48.208;-1.518;2022-07-25T02:15:34;46.30;;;43.43;;
31808;SDS011;18379;48.208;-1.518;2022-07-25T02:20:35;46.10;;;43.30;;
31808;SDS011;18379;48.208;-1.518;2022-07-25T02:25:36;46.13;;;43.33;;
31808;SDS011;18379;48.208;-1.518;2022-07-25T02:30:37;46.90;;;44.00;;
31808;SDS011;18379;48.208;-1.518;2022-07-25T02:35:38;46.67;;;43.73;;
31808;SDS011;18379;48.208;-1.518;2022-07-25T02:40:38;47.03;;;44.00;;
31808;SDS011;18379;48.208;-1.518;2022-07-25T02:45:39;46.27;;;43.40;;
31808;SDS011;18379;48.208;-1.518;2022-07-25T02:50:40;46.57;;;43.67;;
31808;SDS011;18379;48.208;-1.518;2022-07-25T02:55:41;46.37;;;43.37;;
31808;SDS011;18379;48.208;-1.518;2022-07-25T03:00:42;46.33;;;43.33;;
31808;SDS011;18379;48.208;-1.518;2022-07-25T03:05:42;45.90;;;43.20;;
31808;SDS011;18379;48.208;-1.518;2022-07-25T03:10:43;45.80;;;42.90;;
31808;SDS011;18379;48.208;-1.518;2022-07-25T03:15:44;46.87;;;43.90;;
31808;SDS011;18379;48.208;-1.518;2022-07-25T03:20:45;44.77;;;42.27;;
31808;SDS011;18379;48.208;-1.518;2022-07-25T03:25:45;43.73;;;41.13;;
31808;SDS011;18379;48.208;-1.518;2022-07-25T03:30:46;43.63;;;41.03;;
31808;SDS011;18379;48.208;-1.518;2022-07-25T03:35:47;44.07;;;41.57;;
31808;SDS011;18379;48.208;-1.518;2022-07-25T03:40:48;44.40;;;41.80;;
31808;SDS011;18379;48.208;-1.518;2022-07-25T03:45:49;43.70;;;41.20;;
31808;SDS011;18379;48.208;-1.518;2022-07-25T03:50:50;43.53;;;41.03;;
31808;SDS011;18379;48.208;-1.518;2022-07-25T03:55:51;44.03;;;41.53;;
31808;SDS011;18379;48.208;-1.518;2022-07-25T04:00:51;43.93;;;41.53;;
31808;SDS011;18379;48.208;-1.518;2022-07-25T04:05:52;43.77;;;41.27;;
31808;SDS011;18379;48.208;-1.518;2022-07-25T04:10:53;44.87;;;42.27;;
31808;SDS011;18379;48.208;-1.518;2022-07-25T04:15:54;44.40;;;41.80;;
31808;SDS011;18379;48.208;-1.518;2022-07-25T04:20:55;44.13;;;41.53;;
31808;SDS011;18379;48.208;-1.518;2022-07-25T04:25:56;43.30;;;40.87;;
31808;SDS011;18379;48.208;-1.518;2022-07-25T04:30:57;44.33;;;41.83;;
31808;SDS011;18379;48.208;-1.518;2022-07-25T04:35:58;45.57;;;42.67;;
31808;SDS011;18379;48.208;-1.518;2022-07-25T04:41:00;46.33;;;43.47;;
31808;SDS011;18379;48.208;-1.518;2022-07-25T04:46:02;46.27;;;43.50;;
31808;SDS011;18379;48.208;-1.518;2022-07-25T04:51:03;46.70;;;43.70;;
31808;SDS011;18379;48.208;-1.518;2022-07-25T04:56:05;46.73;;;43.70;;
31808;SDS011;18379;48.208;-1.518;2022-07-25T05:01:06;46.43;;;43.63;;
31808;SDS011;18379;48.208;-1.518;2022-07-25T05:06:07;47.43;;;44.33;;
31808;SDS011;18379;48.208;-1.518;2022-07-25T05:11:08;46.77;;;43.77;;
31808;SDS011;18379;48.208;-1.518;2022-07-25T05:16:09;47.33;;;44.00;;
31808;SDS011;18379;48.208;-1.518;2022-07-25T05:21:10;46.27;;;43.47;;
31808;SDS011;18379;48.208;-1.518;2022-07-25T05:26:12;46.80;;;43.87;;
31808;SDS011;18379;48.208;-1.518;2022-07-25T05:31:13;46.77;;;43.73;;
31808;SDS011;18379;48.208;-1.518;2022-07-25T05:36:13;47.03;;;44.13;;
31808;SDS011;18379;48.208;-1.518;2022-07-25T05:41:15;44.73;;;42.13;;
31808;SDS011;18379;48.208;-1.518;2022-07-25T05:46:17;45.33;;;42.07;;
31808;SDS011;18379;48.208;-1.518;2022-07-25T05:51:18;45.87;;;42.70;;
31808;SDS011;18379;48.208;-1.518;2022-07-25T05:56:19;44.83;;;42.17;;
31808;SDS011;18379;48.208;-1.518;2022-07-25T06:01:20;44.67;;;41.83;;
31808;SDS011;18379;48.208;-1.518;2022-07-25T06:06:21;44.10;;;41.30;;
31808;SDS011;18379;48.208;-1.518;2022-07-25T06:11:21;45.10;;;42.03;;
31808;SDS011;18379;48.208;-1.518;2022-07-25T06:16:22;45.13;;;42.20;;
31808;SDS011;18379;48.208;-1.518;2022-07-25T06:21:23;45.00;;;42.17;;
31808;SDS011;18379;48.208;-1.518;2022-07-25T06:26:24;45.73;;;42.73;;
31808;SDS011;18379;48.208;-1.518;2022-07-25T06:31:25;46.17;;;42.97;;
31808;SDS011;18379;48.208;-1.518;2022-07-25T06:36:26;45.37;;;42.40;;
31808;SDS011;18379;48.208;-1.518;2022-07-25T06:41:26;45.23;;;42.40;;
31808;SDS011;18379;48.208;-1.518;2022-07-25T06:46:27;45.00;;;42.13;;
31808;SDS011;18379;48.208;-1.518;2022-07-25T06:51:30;52.27;;;48.33;;
31808;SDS011;18379;48.208;-1.518;2022-07-25T06:56:31;48.27;;;44.80;;
31808;SDS011;18379;48.208;-1.518;2022-07-25T07:01:33;46.93;;;43.63;;
31808;SDS011;18379;48.208;-1.518;2022-07-25T07:06:34;49.13;;;45.37;;
31808;SDS011;18379;48.208;-1.518;2022-07-25T07:11:36;47.73;;;44.23;;
31808;SDS011;18379;48.208;-1.518;2022-07-25T07:16:37;59.77;;;54.73;;
31808;SDS011;18379;48.208;-1.518;2022-07-25T07:21:40;55.60;;;51.40;;
31808;SDS011;18379;48.208;-1.518;2022-07-25T07:26:41;47.90;;;44.50;;
31808;SDS011;18379;48.208;-1.518;2022-07-25T07:31:42;47.40;;;43.80;;
31808;SDS011;18379;48.208;-1.518;2022-07-25T07:36:43;47.00;;;43.57;;
31808;SDS011;18379;48.208;-1.518;2022-07-25T07:41:44;53.70;;;49.77;;
31808;SDS011;18379;48.208;-1.518;2022-07-25T07:46:44;46.53;;;43.53;;
31808;SDS011;18379;48.208;-1.518;2022-07-25T07:51:45;44.90;;;42.20;;
31808;SDS011;18379;48.208;-1.518;2022-07-25T07:57:04;44.17;;;41.37;;
31808;SDS011;18379;48.208;-1.518;2022-07-25T08:02:23;43.90;;;41.10;;
31808;SDS011;18379;48.208;-1.518;2022-07-25T08:07:35;44.57;;;41.17;;
31808;SDS011;18379;48.208;-1.518;2022-07-25T08:13:26;47.07;;;43.80;;
31808;SDS011;18379;48.208;-1.518;2022-07-25T08:19:08;43.80;;;41.10;;
31808;SDS011;18379;48.208;-1.518;2022-07-25T08:24:48;45.07;;;42.27;;
31808;SDS011;18379;48.208;-1.518;2022-07-25T08:30:02;44.53;;;41.80;;
31808;SDS011;18379;48.208;-1.518;2022-07-25T08:35:13;47.83;;;44.10;;
31808;SDS011;18379;48.208;-1.518;2022-07-25T08:40:27;44.80;;;42.10;;
31808;SDS011;18379;48.208;-1.518;2022-07-25T08:45:44;55.33;;;51.10;;
31808;SDS011;18379;48.208;-1.518;2022-07-25T08:51:16;47.10;;;43.90;;
31808;SDS011;18379;48.208;-1.518;2022-07-25T08:56:31;49.17;;;45.67;;
31808;SDS011;18379;48.208;-1.518;2022-07-25T09:01:58;45.50;;;42.70;;
31808;SDS011;18379;48.208;-1.518;2022-07-25T09:07:48;44.53;;;41.53;;
31808;SDS011;18379;48.208;-1.518;2022-07-25T09:13:00;44.43;;;41.83;;
31808;SDS011;18379;48.208;-1.518;2022-07-25T09:18:28;45.23;;;42.13;;
31808;SDS011;18379;48.208;-1.518;2022-07-25T09:29:47;55.03;;;51.17;;
31808;SDS011;18379;48.208;-1.518;2022-07-25T09:35:08;50.27;;;46.87;;
31808;SDS011;18379;48.208;-1.518;2022-07-25T09:40:19;55.73;;;51.83;;
31808;SDS011;18379;48.208;-1.518;2022-07-25T09:45:32;54.00;;;50.23;;
31808;SDS011;18379;48.208;-1.518;2022-07-25T09:51:00;44.67;;;41.87;;
31808;SDS011;18379;48.208;-1.518;2022-07-25T09:56:12;44.47;;;41.97;;
31808;SDS011;18379;48.208;-1.518;2022-07-25T10:02:26;57.30;;;53.27;;
31808;SDS011;18379;48.208;-1.518;2022-07-25T10:07:21;46.07;;;42.83;;
31808;SDS011;18379;48.208;-1.518;2022-07-25T10:12:37;56.30;;;52.47;;
31808;SDS011;18379;48.208;-1.518;2022-07-25T10:17:39;57.60;;;53.43;;
31808;SDS011;18379;48.208;-1.518;2022-07-25T10:22:41;57.83;;;53.50;;
31808;SDS011;18379;48.208;-1.518;2022-07-25T10:27:45;58.83;;;54.37;;
31808;SDS011;18379;48.208;-1.518;2022-07-25T10:32:57;48.53;;;45.27;;
31808;SDS011;18379;48.208;-1.518;2022-07-25T10:38:01;52.17;;;48.57;;
31808;SDS011;18379;48.208;-1.518;2022-07-25T10:43:20;58.20;;;53.80;;
31808;SDS011;18379;48.208;-1.518;2022-07-25T10:48:23;45.63;;;43.03;;
31808;SDS011;18379;48.208;-1.518;2022-07-25T10:58:49;49.87;;;46.50;;
31808;SDS011;18379;48.208;-1.518;2022-07-25T11:03:58;45.77;;;43.07;;
31808;SDS011;18379;48.208;-1.518;2022-07-25T11:09:01;49.55;;;46.45;;
31808;SDS011;18379;48.208;-1.518;2022-07-25T11:14:25;57.90;;;53.92;;
31808;SDS011;18379;48.208;-1.518;2022-07-25T11:19:30;50.15;;;47.00;;
31808;SDS011;18379;48.208;-1.518;2022-07-25T11:24:35;54.67;;;51.00;;
31808;SDS011;18379;48.208;-1.518;2022-07-25T11:29:37;56.25;;;52.58;;
31808;SDS011;18379;48.208;-1.518;2022-07-25T11:34:40;58.15;;;53.92;;
31808;SDS011;18379;48.208;-1.518;2022-07-25T11:39:43;59.38;;;55.33;;
31808;SDS011;18379;48.208;-1.518;2022-07-25T11:44:47;58.63;;;54.45;;
31808;SDS011;18379;48.208;-1.518;2022-07-25T11:49:50;46.70;;;43.97;;
31808;SDS011;18379;48.208;-1.518;2022-07-25T11:59:57;44.92;;;42.42;;
31808;SDS011;18379;48.208;-1.518;2022-07-25T12:05:02;47.13;;;44.30;;
31808;SDS011;18379;48.208;-1.518;2022-07-25T12:10:10;57.10;;;53.15;;
31808;SDS011;18379;48.208;-1.518;2022-07-25T12:15:19;51.17;;;47.38;;
31808;SDS011;18379;48.208;-1.518;2022-07-25T12:20:29;46.90;;;43.67;;
31808;SDS011;18379;48.208;-1.518;2022-07-25T12:25:31;51.42;;;47.75;;
31808;SDS011;18379;48.208;-1.518;2022-07-25T12:30:33;56.33;;;52.28;;
31808;SDS011;18379;48.208;-1.518;2022-07-25T12:35:34;55.10;;;50.90;;
31808;SDS011;18379;48.208;-1.518;2022-07-25T12:40:38;57.93;;;53.70;;
31808;SDS011;18379;48.208;-1.518;2022-07-25T12:45:38;58.43;;;54.13;;
31808;SDS011;18379;48.208;-1.518;2022-07-25T12:50:42;60.30;;;55.75;;
31808;SDS011;18379;48.208;-1.518;2022-07-25T12:55:43;58.35;;;54.28;;
31808;SDS011;18379;48.208;-1.518;2022-07-25T13:00:44;58.40;;;54.55;;
31808;SDS011;18379;48.208;-1.518;2022-07-25T13:05:45;61.05;;;56.25;;
31808;SDS011;18379;48.208;-1.518;2022-07-25T13:10:46;58.05;;;53.95;;
31808;SDS011;18379;48.208;-1.518;2022-07-25T13:15:47;52.67;;;49.35;;
31808;SDS011;18379;48.208;-1.518;2022-07-25T13:20:48;48.42;;;45.33;;
31808;SDS011;18379;48.208;-1.518;2022-07-25T13:25:48;48.08;;;45.25;;
31808;SDS011;18379;48.208;-1.518;2022-07-25T13:30:50;47.00;;;43.75;;
31808;SDS011;18379;48.208;-1.518;2022-07-25T13:35:50;46.35;;;43.63;;
31808;SDS011;18379;48.208;-1.518;2022-07-25T13:40:51;46.53;;;43.47;;
31808;SDS011;18379;48.208;-1.518;2022-07-25T13:45:52;46.45;;;43.65;;
31808;SDS011;18379;48.208;-1.518;2022-07-25T13:50:53;46.28;;;43.67;;
31808;SDS011;18379;48.208;-1.518;2022-07-25T13:55:55;45.95;;;43.35;;
31808;SDS011;18379;48.208;-1.518;2022-07-25T14:00:57;46.17;;;43.47;;
31808;SDS011;18379;48.208;-1.518;2022-07-25T14:05:58;46.13;;;43.30;;
31808;SDS011;18379;48.208;-1.518;2022-07-25T14:10:59;46.22;;;43.53;;
31808;SDS011;18379;48.208;-1.518;2022-07-25T14:15:59;47.92;;;44.65;;
31808;SDS011;18379;48.208;-1.518;2022-07-25T14:21:01;49.58;;;46.25;;
31808;SDS011;18379;48.208;-1.518;2022-07-25T14:26:02;51.22;;;47.97;;
31808;SDS011;18379;48.208;-1.518;2022-07-25T14:31:02;54.15;;;50.30;;
31808;SDS011;18379;48.208;-1.518;2022-07-25T14:36:03;55.40;;;51.83;;
31808;SDS011;18379;48.208;-1.518;2022-07-25T14:41:07;56.53;;;52.73;;
31808;SDS011;18379;48.208;-1.518;2022-07-25T14:46:08;55.00;;;51.53;;
31808;SDS011;18379;48.208;-1.518;2022-07-25T14:51:09;56.92;;;53.15;;
31808;SDS011;18379;48.208;-1.518;2022-07-25T14:56:10;56.63;;;52.95;;
31808;SDS011;18379;48.208;-1.518;2022-07-25T15:01:11;56.43;;;52.73;;
31808;SDS011;18379;48.208;-1.518;2022-07-25T15:06:12;56.17;;;52.37;;
31808;SDS011;18379;48.208;-1.518;2022-07-25T15:11:12;57.10;;;53.33;;
31808;SDS011;18379;48.208;-1.518;2022-07-25T15:16:14;55.70;;;52.07;;
31808;SDS011;18379;48.208;-1.518;2022-07-25T15:21:16;56.20;;;52.50;;
31808;SDS011;18379;48.208;-1.518;2022-07-25T15:26:17;50.87;;;47.73;;
31808;SDS011;18379;48.208;-1.518;2022-07-25T15:31:18;49.07;;;45.63;;
31808;SDS011;18379;48.208;-1.518;2022-07-25T15:36:21;44.97;;;42.30;;
31808;SDS011;18379;48.208;-1.518;2022-07-25T15:41:22;44.30;;;41.88;;
31808;SDS011;18379;48.208;-1.518;2022-07-25T15:46:22;44.80;;;42.20;;
31808;SDS011;18379;48.208;-1.518;2022-07-25T15:51:23;43.93;;;41.60;;
31808;SDS011;18379;48.208;-1.518;2022-07-25T15:56:24;44.80;;;42.40;;
31808;SDS011;18379;48.208;-1.518;2022-07-25T16:01:25;44.80;;;42.30;;
31808;SDS011;18379;48.208;-1.518;2022-07-25T16:06:27;45.33;;;42.73;;
31808;SDS011;18379;48.208;-1.518;2022-07-25T16:11:29;45.37;;;42.70;;
31808;SDS011;18379;48.208;-1.518;2022-07-25T16:16:30;47.23;;;44.20;;
31808;SDS011;18379;48.208;-1.518;2022-07-25T16:21:31;46.03;;;43.33;;
31808;SDS011;18379;48.208;-1.518;2022-07-25T16:26:32;47.77;;;44.80;;
31808;SDS011;18379;48.208;-1.518;2022-07-25T16:31:33;52.53;;;49.07;;
31808;SDS011;18379;48.208;-1.518;2022-07-25T16:36:34;47.10;;;44.23;;
31808;SDS011;18379;48.208;-1.518;2022-07-25T16:41:35;47.80;;;44.60;;
31808;SDS011;18379;48.208;-1.518;2022-07-25T16:46:36;47.43;;;44.60;;
31808;SDS011;18379;48.208;-1.518;2022-07-25T16:51:37;48.67;;;45.63;;
31808;SDS011;18379;48.208;-1.518;2022-07-25T16:56:37;48.90;;;45.77;;
31808;SDS011;18379;48.208;-1.518;2022-07-25T17:01:38;47.60;;;44.50;;
31808;SDS011;18379;48.208;-1.518;2022-07-25T17:06:39;46.70;;;43.90;;
31808;SDS011;18379;48.208;-1.518;2022-07-25T17:11:40;49.07;;;46.03;;
31808;SDS011;18379;48.208;-1.518;2022-07-25T17:16:41;47.13;;;44.33;;
31808;SDS011;18379;48.208;-1.518;2022-07-25T17:21:43;48.33;;;45.40;;
31808;SDS011;18379;48.208;-1.518;2022-07-25T17:26:43;46.70;;;44.00;;
31808;SDS011;18379;48.208;-1.518;2022-07-25T17:31:44;47.33;;;44.53;;
31808;SDS011;18379;48.208;-1.518;2022-07-25T17:36:45;46.93;;;44.10;;
31808;SDS011;18379;48.208;-1.518;2022-07-25T17:41:46;56.20;;;51.90;;
31808;SDS011;18379;48.208;-1.518;2022-07-25T17:46:47;47.37;;;44.67;;
31808;SDS011;18379;48.208;-1.518;2022-07-25T17:51:49;72.97;;;66.60;;
31808;SDS011;18379;48.208;-1.518;2022-07-25T17:56:49;44.37;;;41.80;;
31808;SDS011;18379;48.208;-1.518;2022-07-25T18:01:51;44.20;;;41.80;;
31808;SDS011;18379;48.208;-1.518;2022-07-25T18:06:51;44.30;;;41.80;;
31808;SDS011;18379;48.208;-1.518;2022-07-25T18:11:53;44.00;;;41.57;;
31808;SDS011;18379;48.208;-1.518;2022-07-25T18:16:53;45.20;;;42.40;;
31808;SDS011;18379;48.208;-1.518;2022-07-25T18:21:55;44.80;;;42.00;;
31808;SDS011;18379;48.208;-1.518;2022-07-25T18:26:57;43.90;;;41.30;;
31808;SDS011;18379;48.208;-1.518;2022-07-25T18:31:58;44.37;;;41.77;;
31808;SDS011;18379;48.208;-1.518;2022-07-25T18:36:59;44.30;;;41.60;;
31808;SDS011;18379;48.208;-1.518;2022-07-25T18:42:00;45.03;;;42.23;;
31808;SDS011;18379;48.208;-1.518;2022-07-25T18:47:01;45.03;;;42.30;;
31808;SDS011;18379;48.208;-1.518;2022-07-25T18:52:02;45.70;;;42.70;;
31808;SDS011;18379;48.208;-1.518;2022-07-25T18:57:05;46.47;;;43.67;;
31808;SDS011;18379;48.208;-1.518;2022-07-25T19:02:06;47.13;;;44.07;;
31808;SDS011;18379;48.208;-1.518;2022-07-25T19:07:07;54.90;;;51.00;;
31808;SDS011;18379;48.208;-1.518;2022-07-25T19:12:08;46.37;;;43.47;;
31808;SDS011;18379;48.208;-1.518;2022-07-25T19:17:09;47.17;;;44.17;;
31808;SDS011;18379;48.208;-1.518;2022-07-25T19:22:10;46.50;;;43.50;;
31808;SDS011;18379;48.208;-1.518;2022-07-25T19:27:11;51.97;;;48.60;;
31808;SDS011;18379;48.208;-1.518;2022-07-25T19:32:15;52.17;;;48.73;;
31808;SDS011;18379;48.208;-1.518;2022-07-25T19:37:16;46.50;;;43.60;;
31808;SDS011;18379;48.208;-1.518;2022-07-25T19:42:17;46.30;;;43.40;;
31808;SDS011;18379;48.208;-1.518;2022-07-25T19:47:18;45.63;;;42.77;;
31808;SDS011;18379;48.208;-1.518;2022-07-25T19:52:19;45.93;;;43.00;;
31808;SDS011;18379;48.208;-1.518;2022-07-25T19:57:20;43.97;;;41.27;;
31808;SDS011;18379;48.208;-1.518;2022-07-25T20:02:21;43.83;;;41.23;;
31808;SDS011;18379;48.208;-1.518;2022-07-25T20:07:21;44.27;;;41.57;;
31808;SDS011;18379;48.208;-1.518;2022-07-25T20:12:23;43.77;;;41.27;;
31808;SDS011;18379;48.208;-1.518;2022-07-25T20:17:24;44.53;;;41.70;;
31808;SDS011;18379;48.208;-1.518;2022-07-25T20:22:25;43.83;;;41.30;;
31808;SDS011;18379;48.208;-1.518;2022-07-25T20:27:26;44.43;;;41.67;;
31808;SDS011;18379;48.208;-1.518;2022-07-25T20:32:27;44.37;;;41.67;;
31808;SDS011;18379;48.208;-1.518;2022-07-25T20:37:29;44.47;;;41.77;;
31808;SDS011;18379;48.208;-1.518;2022-07-25T20:42:30;44.23;;;41.13;;
31808;SDS011;18379;48.208;-1.518;2022-07-25T20:47:31;43.97;;;41.47;;
31808;SDS011;18379;48.208;-1.518;2022-07-25T20:52:33;50.77;;;47.37;;
31808;SDS011;18379;48.208;-1.518;2022-07-25T20:57:34;55.53;;;51.27;;
31808;SDS011;18379;48.208;-1.518;2022-07-25T21:02:34;54.80;;;50.73;;
31808;SDS011;18379;48.208;-1.518;2022-07-25T21:07:35;54.60;;;50.77;;
31808;SDS011;18379;48.208;-1.518;2022-07-25T21:12:36;54.93;;;50.87;;
31808;SDS011;18379;48.208;-1.518;2022-07-25T21:17:38;55.83;;;51.67;;
31808;SDS011;18379;48.208;-1.518;2022-07-25T21:22:40;56.50;;;52.60;;
31808;SDS011;18379;48.208;-1.518;2022-07-25T21:27:42;57.07;;;52.87;;
31808;SDS011;18379;48.208;-1.518;2022-07-25T21:32:43;53.90;;;50.03;;
31808;SDS011;18379;48.208;-1.518;2022-07-25T21:37:44;55.03;;;51.17;;
31808;SDS011;18379;48.208;-1.518;2022-07-25T21:42:44;57.93;;;53.50;;
31808;SDS011;18379;48.208;-1.518;2022-07-25T21:47:45;56.90;;;52.70;;
31808;SDS011;18379;48.208;-1.518;2022-07-25T21:52:46;56.27;;;51.93;;
31808;SDS011;18379;48.208;-1.518;2022-07-25T21:57:47;58.40;;;53.80;;
31808;SDS011;18379;48.208;-1.518;2022-07-25T22:02:50;44.37;;;41.60;;
31808;SDS011;18379;48.208;-1.518;2022-07-25T22:07:51;47.53;;;44.27;;
31808;SDS011;18379;48.208;-1.518;2022-07-25T22:12:52;43.20;;;40.70;;
31808;SDS011;18379;48.208;-1.518;2022-07-25T22:17:52;46.97;;;43.77;;
31808;SDS011;18379;48.208;-1.518;2022-07-25T22:22:53;42.53;;;39.90;;
31808;SDS011;18379;48.208;-1.518;2022-07-25T22:27:54;42.63;;;40.20;;
31808;SDS011;18379;48.208;-1.518;2022-07-25T22:32:55;42.57;;;40.07;;
31808;SDS011;18379;48.208;-1.518;2022-07-25T22:37:55;42.33;;;39.97;;
31808;SDS011;18379;48.208;-1.518;2022-07-25T22:42:56;42.63;;;39.93;;
31808;SDS011;18379;48.208;-1.518;2022-07-25T22:47:57;43.33;;;40.60;;
31808;SDS011;18379;48.208;-1.518;2022-07-25T22:52:58;42.57;;;39.97;;
31808;SDS011;18379;48.208;-1.518;2022-07-25T22:57:58;42.00;;;39.53;;
31808;SDS011;18379;48.208;-1.518;2022-07-25T23:02:59;42.67;;;40.20;;
31808;SDS011;18379;48.208;-1.518;2022-07-25T23:08:01;43.10;;;40.13;;
31808;SDS011;18379;48.208;-1.518;2022-07-25T23:13:01;42.50;;;40.13;;
31808;SDS011;18379;48.208;-1.518;2022-07-25T23:18:02;42.60;;;40.03;;
31808;SDS011;18379;48.208;-1.518;2022-07-25T23:23:03;44.83;;;41.73;;
31808;SDS011;18379;48.208;-1.518;2022-07-25T23:28:04;44.90;;;41.87;;
31808;SDS011;18379;48.208;-1.518;2022-07-25T23:33:05;45.40;;;42.33;;
31808;SDS011;18379;48.208;-1.518;2022-07-25T23:38:06;45.33;;;42.47;;
31808;SDS011;18379;48.208;-1.518;2022-07-25T23:43:07;47.40;;;44.03;;
31808;SDS011;18379;48.208;-1.518;2022-07-25T23:48:08;53.83;;;49.80;;
31808;SDS011;18379;48.208;-1.518;2022-07-25T23:53:09;46.20;;;42.87;;
31808;SDS011;18379;48.208;-1.518;2022-07-25T23:58:10;53.27;;;49.03;;
